createdAt,value
2023-06-06T00:02:18.052Z,54.14
2023-06-06T00:07:21.014Z,53.85
2023-06-06T00:12:22.549Z,55.26
2023-06-06T00:17:24.151Z,54.11
2023-06-06T00:22:25.954Z,53.71
2023-06-06T00:27:27.487Z,53.99
2023-06-06T00:32:29.071Z,54.03
2023-06-06T00:37:30.758Z,54.41
2023-06-06T00:42:32.362Z,54.46
2023-06-06T00:47:33.926Z,54.27
2023-06-06T00:52:36.659Z,53.08
2023-06-06T00:57:38.190Z,53.58
2023-06-06T01:02:40.553Z,53.26
2023-06-06T01:07:44.880Z,53.71
2023-06-06T01:13:12.862Z,53.74
2023-06-06T01:18:14.413Z,53.77
2023-06-06T01:23:15.943Z,54.07
2023-06-06T01:28:17.546Z,53.03
2023-06-06T01:33:31.113Z,52.83
2023-06-06T01:38:44.721Z,52.81
2023-06-06T01:43:47.091Z,52.86
2023-06-06T01:48:48.635Z,53.39
2023-06-06T01:53:50.455Z,53.22
2023-06-06T01:58:52.003Z,54.16
2023-06-06T02:03:53.722Z,54.83
2023-06-06T02:08:55.620Z,55.08
2023-06-06T02:13:58.280Z,55.21
2023-06-06T02:18:59.861Z,54.33
2023-06-06T02:24:01.804Z,54.25
2023-06-06T02:29:04.398Z,53.70
2023-06-06T02:34:06.148Z,54.33
2023-06-06T02:39:07.735Z,55.36
2023-06-06T02:44:09.270Z,55.28
2023-06-06T02:49:10.838Z,55.14
2023-06-06T02:54:12.379Z,53.64
2023-06-06T02:59:13.914Z,53.89
2023-06-06T03:04:15.829Z,54.40
2023-06-06T03:09:17.420Z,54.54
2023-06-06T03:14:18.972Z,54.82
2023-06-06T03:19:20.531Z,55.17
2023-06-06T03:24:22.089Z,55.76
2023-06-06T03:29:23.631Z,55.39
2023-06-06T03:34:26.714Z,55.58
2023-06-06T03:39:28.291Z,55.80
2023-06-06T03:44:29.878Z,55.70
2023-06-06T03:49:36.992Z,55.28
2023-06-06T03:54:38.753Z,54.91
2023-06-06T03:59:40.570Z,55.50
2023-06-06T04:04:42.798Z,55.11
2023-06-06T04:09:44.384Z,54.82
2023-06-06T04:14:45.982Z,54.78
2023-06-06T04:19:48.889Z,54.94
2023-06-06T04:24:50.429Z,54.76
2023-06-06T04:29:52.844Z,53.77
2023-06-06T04:34:58.649Z,53.22
2023-06-06T04:40:01.847Z,54.70
2023-06-06T04:45:03.750Z,54.07
2023-06-06T04:50:07.246Z,54.28
2023-06-06T04:55:09.240Z,54.20
2023-06-06T05:00:13.866Z,54.22
2023-06-06T05:05:17.755Z,53.59
2023-06-06T05:10:19.283Z,54.02
2023-06-06T05:15:20.886Z,52.83
2023-06-06T05:20:24.718Z,52.58
2023-06-06T05:25:26.255Z,52.34
2023-06-06T05:30:27.789Z,52.46
2023-06-06T05:35:29.323Z,52.71
2023-06-06T05:40:30.884Z,52.52
2023-06-06T05:45:32.415Z,52.74
2023-06-06T05:50:33.994Z,52.93
2023-06-06T05:55:36.330Z,52.85
2023-06-06T06:00:37.899Z,52.37
2023-06-06T06:05:39.516Z,52.00
2023-06-06T06:10:42.122Z,52.59
2023-06-06T06:15:44.305Z,51.13
2023-06-06T06:20:46.812Z,51.39
2023-06-06T06:25:48.516Z,51.93
2023-06-06T06:30:50.138Z,51.60
2023-06-06T06:35:51.667Z,50.42
2023-06-06T06:40:54.185Z,50.03
2023-06-06T06:45:55.796Z,49.90
2023-06-06T06:50:57.497Z,49.87
2023-06-06T06:55:59.069Z,49.66
2023-06-06T07:01:03.753Z,49.03
2023-06-06T07:06:05.812Z,48.80
2023-06-06T07:11:07.374Z,47.81
2023-06-06T07:16:10.304Z,47.86
2023-06-06T07:21:13.600Z,47.83
2023-06-06T07:26:17.761Z,47.65
2023-06-06T07:31:19.460Z,47.98
2023-06-06T07:36:21.527Z,48.56
2023-06-06T07:41:23.125Z,47.42
2023-06-06T07:46:25.703Z,46.33
2023-06-06T07:51:27.309Z,46.73
2023-06-06T07:56:31.357Z,46.19
2023-06-06T08:01:34.371Z,47.01
2023-06-06T08:06:38.284Z,46.34
2023-06-06T08:11:39.917Z,45.74
2023-06-06T08:16:42.488Z,45.34
2023-06-06T08:21:44.030Z,46.09
2023-06-06T08:26:46.021Z,46.33
2023-06-06T08:31:47.562Z,46.08
2023-06-06T08:36:50.070Z,46.16
2023-06-06T08:41:53.311Z,45.71
2023-06-06T08:46:56.380Z,45.36
2023-06-06T08:51:57.987Z,45.53
2023-06-06T08:57:00.996Z,45.34
2023-06-06T09:02:02.580Z,44.70
2023-06-06T09:07:12.322Z,43.81
2023-06-06T09:12:13.963Z,43.87
2023-06-06T09:17:16.382Z,44.19
2023-06-06T09:22:17.863Z,44.04
2023-06-06T09:27:32.009Z,43.40
2023-06-06T09:32:33.629Z,42.74
2023-06-06T09:37:35.331Z,42.90
2023-06-06T09:42:38.777Z,42.56
2023-06-06T09:47:41.765Z,42.60
2023-06-06T09:52:43.426Z,41.54
2023-06-06T09:57:44.985Z,42.09
2023-06-06T10:02:47.504Z,42.31
2023-06-06T10:07:49.312Z,42.21
2023-06-06T10:12:50.968Z,41.50
2023-06-06T10:17:52.616Z,42.01
2023-06-06T10:22:54.300Z,41.20
2023-06-06T10:28:26.743Z,41.63
2023-06-06T10:33:46.009Z,41.24
2023-06-06T10:39:18.656Z,41.51
2023-06-06T10:44:22.088Z,40.58
2023-06-06T10:49:23.619Z,40.07
2023-06-06T10:54:28.982Z,39.97
2023-06-06T10:59:33.020Z,39.70
2023-06-06T11:04:35.471Z,40.61
2023-06-06T11:09:37.122Z,40.54
2023-06-06T11:15:10.008Z,39.84
2023-06-06T11:20:18.277Z,40.49
2023-06-06T11:25:24.909Z,39.72
2023-06-06T11:30:40.503Z,39.16
2023-06-06T11:35:43.044Z,39.91
2023-06-06T11:40:46.022Z,39.36
2023-06-06T11:46:05.496Z,39.07
2023-06-06T11:51:13.625Z,39.04
2023-06-06T11:56:18.255Z,38.48
2023-06-06T12:01:19.856Z,38.33
2023-06-06T12:06:23.919Z,38.70
2023-06-06T12:11:31.175Z,38.65
2023-06-06T12:16:32.786Z,38.33
2023-06-06T12:21:52.903Z,38.33
2023-06-06T12:26:57.309Z,37.86
2023-06-06T12:32:18.263Z,37.68
2023-06-06T12:37:20.010Z,36.76
2023-06-06T12:42:21.568Z,37.10
2023-06-06T12:47:24.084Z,37.63
2023-06-06T12:52:26.218Z,37.07
2023-06-06T12:57:27.786Z,37.19
2023-06-06T13:02:33.618Z,36.96
2023-06-06T13:07:35.935Z,36.53
2023-06-06T13:12:41.243Z,37.14
2023-06-06T13:17:42.897Z,36.95
2023-06-06T13:22:44.539Z,36.97
2023-06-06T13:27:46.071Z,37.38
2023-06-06T13:32:47.830Z,36.58
2023-06-06T13:37:49.577Z,36.81
2023-06-06T13:42:51.517Z,36.03
2023-06-06T13:47:53.616Z,36.25
2023-06-06T13:52:55.219Z,36.50
2023-06-06T13:57:59.301Z,36.19
2023-06-06T14:03:03.600Z,36.11
2023-06-06T14:08:05.341Z,37.20
2023-06-06T14:13:06.942Z,37.45
2023-06-06T14:18:08.692Z,37.37
2023-06-06T14:23:10.304Z,37.27
2023-06-06T14:28:13.078Z,36.71
2023-06-06T14:33:14.702Z,37.00
2023-06-06T14:38:16.330Z,37.30
2023-06-06T14:43:17.871Z,36.74
2023-06-06T14:48:19.446Z,37.22
2023-06-06T14:53:22.166Z,37.92
2023-06-06T14:58:23.764Z,37.83
2023-06-06T15:03:26.193Z,37.63
2023-06-06T15:08:27.858Z,38.28
2023-06-06T15:13:29.475Z,37.93
2023-06-06T15:18:31.015Z,38.61
2023-06-06T15:23:32.651Z,38.66
2023-06-06T15:28:34.131Z,37.52
2023-06-06T15:33:35.867Z,36.71
2023-06-06T15:38:37.432Z,33.42
2023-06-06T15:43:38.972Z,32.24
2023-06-06T15:48:40.609Z,32.27
2023-06-06T15:53:42.032Z,33.77
2023-06-06T15:58:45.693Z,34.95
2023-06-06T16:03:47.259Z,36.35
2023-06-06T16:08:48.878Z,36.96
2023-06-06T16:13:50.437Z,40.11
2023-06-06T16:18:52.097Z,38.77
2023-06-06T16:23:53.855Z,39.55
2023-06-06T16:28:55.397Z,40.56
2023-06-06T16:33:56.986Z,40.99
2023-06-06T16:38:58.881Z,41.05
2023-06-06T16:44:00.481Z,41.41
2023-06-06T16:49:02.014Z,42.02
2023-06-06T16:54:04.633Z,42.15
2023-06-06T16:59:08.264Z,42.68
2023-06-06T17:04:09.861Z,43.27
2023-06-06T17:09:12.371Z,42.87
2023-06-06T17:14:13.981Z,43.84
2023-06-06T17:19:15.608Z,44.00
2023-06-06T17:24:17.214Z,44.32
2023-06-06T17:29:18.789Z,44.60
2023-06-06T17:34:21.217Z,44.21
2023-06-06T17:39:22.758Z,44.99
2023-06-06T17:44:24.424Z,45.35
2023-06-06T17:49:26.935Z,45.42
2023-06-06T17:54:30.305Z,45.17
2023-06-06T17:59:32.929Z,44.68
2023-06-06T18:04:34.544Z,45.33
2023-06-06T18:09:36.085Z,44.93
2023-06-06T18:14:38.348Z,45.08
2023-06-06T18:19:39.944Z,45.16
2023-06-06T18:24:41.476Z,45.31
2023-06-06T18:29:43.022Z,45.70
2023-06-06T18:34:45.369Z,45.75
2023-06-06T18:39:46.764Z,46.16
2023-06-06T18:44:48.284Z,46.42
2023-06-06T18:49:50.904Z,46.35
2023-06-06T18:54:52.475Z,46.32
2023-06-06T18:59:54.815Z,46.72
2023-06-06T19:04:57.065Z,47.09
2023-06-06T19:09:59.125Z,47.34
2023-06-06T19:15:02.471Z,47.81
2023-06-06T19:20:04.504Z,47.81
2023-06-06T19:25:06.500Z,48.01
2023-06-06T19:30:08.346Z,47.74
2023-06-06T19:35:10.205Z,47.87
2023-06-06T19:40:24.919Z,48.13
2023-06-06T19:45:27.158Z,48.56
2023-06-06T19:50:29.787Z,48.58
2023-06-06T19:55:31.718Z,49.25
2023-06-06T20:00:33.370Z,48.64
2023-06-06T20:05:34.966Z,49.33
2023-06-06T20:10:37.052Z,49.02
2023-06-06T20:15:38.645Z,48.70
2023-06-06T20:20:43.404Z,49.82
2023-06-06T20:26:06.408Z,49.20
2023-06-06T20:31:07.993Z,50.07
2023-06-06T20:36:09.617Z,49.62
2023-06-06T20:41:11.216Z,50.95
2023-06-06T20:46:12.760Z,49.83
2023-06-06T20:51:14.324Z,51.42
2023-06-06T20:56:15.893Z,52.04
2023-06-06T21:01:17.623Z,51.98
2023-06-06T21:06:19.206Z,51.73
2023-06-06T21:11:20.863Z,52.57
2023-06-06T21:16:22.453Z,52.18
2023-06-06T21:21:24.211Z,52.56
2023-06-06T21:26:26.764Z,52.34
2023-06-06T21:31:28.326Z,51.81
2023-06-06T21:36:29.849Z,52.72
2023-06-06T21:41:31.382Z,52.61
2023-06-06T21:46:32.928Z,53.97
2023-06-06T21:51:34.547Z,53.72
2023-06-06T21:56:36.081Z,55.53
2023-06-06T22:01:37.637Z,54.61
2023-06-06T22:06:39.620Z,55.49
2023-06-06T22:11:41.155Z,56.49
2023-06-06T22:16:42.763Z,56.43
2023-06-06T22:21:44.346Z,57.07
2023-06-06T22:26:45.966Z,57.15
2023-06-06T22:31:49.590Z,56.99
2023-06-06T22:36:51.217Z,55.94
2023-06-06T22:41:52.761Z,55.31
2023-06-06T22:46:54.303Z,55.32
2023-06-06T22:51:55.848Z,55.79
2023-06-06T22:56:57.379Z,55.69
2023-06-06T23:01:58.924Z,55.57
2023-06-06T23:07:00.463Z,55.36
2023-06-06T23:12:02.093Z,55.40
2023-06-06T23:17:03.803Z,55.70
2023-06-06T23:22:05.690Z,55.84
2023-06-06T23:27:07.537Z,55.09
2023-06-06T23:32:10.191Z,54.69
2023-06-06T23:37:11.630Z,55.14
2023-06-06T23:42:13.179Z,54.87
2023-06-06T23:47:14.742Z,54.79
2023-06-06T23:52:16.333Z,56.51
2023-06-06T23:57:17.867Z,56.38
